Time;durP1;ratioP1;P1;durP2;ratioP2;P2;SDS_P1;SDS_P2;PMS_P1;PMS_P2;Temp;Humidity;BMP_temperature;BMP_pressure;BME280_temperature;BME280_humidity;BME280_pressure;Samples;Min_cycle;Max_cycle;Signal;HPM_P1;HPM_P2
2023/05/26 00:02:24;;;;;;;23.20;5.93;;;10.00;99.90;;;;;;5115488;28;20056;-71
2023/05/26 00:04:50;;;;;;;25.87;5.03;;;10.00;99.90;;;;;;5096979;28;20105;-71
2023/05/26 00:07:16;;;;;;;22.23;4.67;;;10.00;99.90;;;;;;5115488;28;20656;-70
2023/05/26 00:09:42;;;;;;;25.67;5.63;;;9.90;99.90;;;;;;5115194;28;20483;-70
2023/05/26 00:12:08;;;;;;;22.90;5.17;;;9.90;99.90;;;;;;5097107;28;20104;-70
2023/05/26 00:14:34;;;;;;;30.87;5.60;;;9.80;99.90;;;;;;5115210;28;20365;-70
2023/05/26 00:17:03;;;;;;;21.40;4.60;;;9.80;99.90;;;;;;5114686;28;20400;-70
2023/05/26 00:19:28;;;;;;;23.03;5.00;;;9.80;99.90;;;;;;5097106;28;20499;-70
2023/05/26 00:21:54;;;;;;;24.83;5.73;;;9.80;99.90;;;;;;5096670;28;20285;-70
2023/05/26 00:24:20;;;;;;;24.00;5.60;;;9.80;99.90;;;;;;5114850;28;20040;-70
2023/05/26 00:26:45;;;;;;;22.07;4.63;;;9.80;99.90;;;;;;5115057;28;20035;-70
2023/05/26 00:29:11;;;;;;;23.30;5.77;;;9.70;99.90;;;;;;5114822;28;20130;-70
2023/05/26 00:31:37;;;;;;;22.10;5.77;;;9.60;99.90;;;;;;5096803;28;20043;-71
2023/05/26 00:34:02;;;;;;;27.47;5.73;;;9.60;99.90;;;;;;5096278;28;20131;-70
2023/05/26 00:36:28;;;;;;;24.73;5.80;;;9.60;99.90;;;;;;5096447;28;20043;-70
2023/05/26 00:38:54;;;;;;;23.67;5.27;;;9.50;99.90;;;;;;5114272;28;20395;-70
2023/05/26 00:41:20;;;;;;;24.17;5.10;;;9.60;99.90;;;;;;5114638;28;20044;-71
2023/05/26 00:43:45;;;;;;;24.80;4.33;;;9.60;99.90;;;;;;5096677;28;20047;-70
2023/05/26 00:46:11;;;;;;;29.87;5.60;;;9.60;99.90;;;;;;5096218;28;20043;-70
2023/05/26 00:48:37;;;;;;;27.57;5.93;;;9.50;99.90;;;;;;5114501;28;20054;-70
2023/05/26 00:51:03;;;;;;;25.13;5.23;;;9.40;99.90;;;;;;5096026;28;20074;-71
2023/05/26 00:53:29;;;;;;;21.70;5.53;;;9.40;99.90;;;;;;5079643;28;20083;-70
2023/05/26 00:55:55;;;;;;;27.10;5.93;;;9.30;99.90;;;;;;5114433;28;20126;-71
2023/05/26 00:58:22;;;;;;;22.03;5.10;;;9.30;99.90;;;;;;5062763;28;20804;-71
2023/05/26 01:00:48;;;;;;;33.63;6.23;;;9.30;99.90;;;;;;5114415;28;20286;-70
2023/05/26 01:03:16;;;;;;;24.63;5.57;;;9.30;99.90;;;;;;5113925;28;20277;-70
2023/05/26 01:05:42;;;;;;;28.40;6.83;;;9.30;99.90;;;;;;5114159;28;20281;-70
2023/05/26 01:08:08;;;;;;;26.90;5.07;;;9.30;99.90;;;;;;5113656;28;20870;-70
2023/05/26 01:10:34;;;;;;;24.90;5.73;;;9.30;99.90;;;;;;5114084;28;20380;-70
2023/05/26 01:13:06;;;;;;;27.20;5.70;;;9.20;99.90;;;;;;5113555;28;20051;-71
2023/05/26 01:15:55;;;;;;;27.57;6.43;;;9.30;99.90;;;;;;5114127;28;20283;-70
2023/05/26 01:18:24;;;;;;;25.30;5.10;;;9.20;99.90;;;;;;5114260;28;20749;-71
2023/05/26 01:20:57;;;;;;;22.93;4.37;;;9.20;99.90;;;;;;5095868;28;20286;-71
2023/05/26 01:23:54;;;;;;;19.97;5.47;;;9.20;99.90;;;;;;5114103;28;20273;-70
2023/05/26 01:26:47;;;;;;;21.70;5.40;;;9.20;99.90;;;;;;5113583;28;20410;-71
2023/05/26 01:29:15;;;;;;;26.17;5.43;;;9.30;99.90;;;;;;5113158;28;20303;-71
2023/05/26 01:31:41;;;;;;;29.03;6.53;;;9.20;99.90;;;;;;5113702;28;20729;-71
2023/05/26 01:34:08;;;;;;;23.63;5.67;;;9.20;99.90;;;;;;5113623;28;20281;-71
2023/05/26 01:36:35;;;;;;;26.87;5.47;;;9.20;99.90;;;;;;5095662;28;20306;-71
2023/05/26 01:39:02;;;;;;;23.80;5.47;;;9.20;99.90;;;;;;5113352;28;20277;-71
2023/05/26 01:41:42;;;;;;;23.57;6.07;;;9.20;99.90;;;;;;5078721;28;20768;-70
2023/05/26 01:44:23;;;;;;;29.47;5.63;;;9.20;99.90;;;;;;5113656;28;20281;-71
2023/05/26 01:46:50;;;;;;;31.20;6.77;;;9.30;99.90;;;;;;5113639;28;20282;-70
2023/05/26 01:49:18;;;;;;;27.60;6.87;;;9.20;99.90;;;;;;5113235;28;20273;-70
2023/05/26 01:51:55;;;;;;;30.73;6.03;;;9.30;99.90;;;;;;5095108;28;20778;-71
2023/05/26 01:54:22;;;;;;;25.77;5.23;;;9.20;99.90;;;;;;5113228;28;20280;-71
2023/05/26 01:56:51;;;;;;;19.90;4.20;;;9.20;99.90;;;;;;5113137;28;20785;-71
2023/05/26 01:59:19;;;;;;;28.90;5.03;;;9.30;99.90;;;;;;5113127;28;20277;-70
2023/05/26 02:01:48;;;;;;;28.63;6.70;;;9.20;99.90;;;;;;5113355;28;20309;-71
2023/05/26 02:04:14;;;;;;;24.27;5.53;;;9.30;99.90;;;;;;5112641;28;20671;-71
2023/05/26 02:06:40;;;;;;;27.30;6.13;;;9.30;99.90;;;;;;5113329;28;20281;-70
2023/05/26 02:09:06;;;;;;;33.33;6.30;;;9.30;99.90;;;;;;5078491;28;20048;-71
2023/05/26 02:11:32;;;;;;;24.60;5.07;;;9.30;99.90;;;;;;5113228;28;20051;-70
2023/05/26 02:13:58;;;;;;;24.47;5.73;;;9.30;99.90;;;;;;5095207;28;20288;-71
2023/05/26 02:16:25;;;;;;;24.50;5.30;;;9.30;99.90;;;;;;5094455;28;20297;-71
2023/05/26 02:18:50;;;;;;;25.83;5.50;;;9.20;99.90;;;;;;5113003;28;20281;-71
2023/05/26 02:21:16;;;;;;;26.03;6.30;;;9.30;99.90;;;;;;5094865;28;20364;-71
2023/05/26 02:23:43;;;;;;;26.33;6.43;;;9.20;99.90;;;;;;5096611;28;20135;-70
2023/05/26 02:26:09;;;;;;;24.77;5.37;;;9.20;99.90;;;;;;5116976;28;20534;-71
2023/05/26 02:28:35;;;;;;;25.03;5.20;;;9.30;99.90;;;;;;5117349;28;20313;-70
2023/05/26 02:31:01;;;;;;;22.30;6.83;;;9.20;99.90;;;;;;5116979;28;20461;-70
2023/05/26 02:33:27;;;;;;;22.50;5.17;;;9.20;99.90;;;;;;5116812;28;20325;-71
2023/05/26 02:35:52;;;;;;;22.63;6.00;;;9.20;99.90;;;;;;5098948;28;20039;-71
2023/05/26 02:38:18;;;;;;;20.13;4.73;;;9.20;99.90;;;;;;5116913;28;20177;-71
2023/05/26 02:40:44;;;;;;;23.60;5.30;;;9.10;99.90;;;;;;5117118;28;20177;-71
2023/05/26 02:43:10;;;;;;;22.83;4.93;;;9.10;99.90;;;;;;5098723;28;20372;-71
2023/05/26 02:45:35;;;;;;;22.00;4.77;;;9.10;99.90;;;;;;5098581;28;20068;-70
2023/05/26 02:48:01;;;;;;;25.77;6.17;;;9.10;99.90;;;;;;5081890;28;20058;-70
2023/05/26 02:50:27;;;;;;;22.40;5.60;;;9.00;99.90;;;;;;5116704;28;20051;-70
2023/05/26 02:52:52;;;;;;;20.70;5.40;;;9.10;99.90;;;;;;5099181;28;20054;-70
2023/05/26 02:55:18;;;;;;;34.60;6.13;;;9.00;99.90;;;;;;5098329;28;20130;-70
2023/05/26 02:57:44;;;;;;;20.97;4.77;;;9.00;99.90;;;;;;5081440;28;20047;-70
2023/05/26 03:00:13;;;;;;;27.50;4.90;;;9.10;99.90;;;;;;5098326;28;20078;-71
2023/05/26 03:02:39;;;;;;;21.97;5.57;;;9.10;99.90;;;;;;5116568;28;20384;-71
2023/05/26 03:05:06;;;;;;;22.30;5.43;;;9.00;99.90;;;;;;5098494;28;20638;-71
2023/05/26 03:07:31;;;;;;;24.97;5.63;;;8.90;99.90;;;;;;5116312;28;20317;-70
2023/05/26 03:09:57;;;;;;;21.30;4.60;;;8.90;99.90;;;;;;5116727;28;20777;-71
2023/05/26 03:12:23;;;;;;;21.83;5.23;;;8.90;99.90;;;;;;5116034;28;20049;-71
2023/05/26 03:14:49;;;;;;;28.77;5.73;;;8.90;99.90;;;;;;5098419;28;20039;-71
2023/05/26 03:17:16;;;;;;;23.57;5.07;;;8.90;99.90;;;;;;5097533;28;20104;-71
2023/05/26 03:19:44;;;;;;;30.77;5.87;;;8.90;99.90;;;;;;5098530;28;20281;-70
2023/05/26 03:22:10;;;;;;;23.33;5.13;;;8.90;99.90;;;;;;5098031;28;20286;-74
2023/05/26 03:24:36;;;;;;;19.70;4.80;;;8.90;99.90;;;;;;5081768;28;20297;-71
2023/05/26 03:27:02;;;;;;;21.73;5.00;;;8.90;99.90;;;;;;5098180;28;20269;-70
2023/05/26 03:29:30;;;;;;;18.40;4.37;;;8.90;99.90;;;;;;5115772;28;20047;-71
2023/05/26 03:31:56;;;;;;;24.73;6.17;;;8.90;99.90;;;;;;5115958;28;20671;-71
2023/05/26 03:34:23;;;;;;;21.90;4.93;;;8.90;99.90;;;;;;5115296;28;20296;-71
2023/05/26 03:36:49;;;;;;;20.60;4.57;;;8.80;99.90;;;;;;5115983;28;20329;-70
2023/05/26 03:39:16;;;;;;;23.23;6.57;;;8.80;99.90;;;;;;5115680;28;20816;-71
2023/05/26 03:41:42;;;;;;;23.60;5.17;;;8.80;99.90;;;;;;5115915;28;20097;-71
2023/05/26 03:44:08;;;;;;;22.23;4.57;;;8.80;99.90;;;;;;5097705;28;20358;-70
2023/05/26 03:46:33;;;;;;;24.57;5.10;;;8.80;99.90;;;;;;5097369;28;20442;-71
2023/05/26 03:49:00;;;;;;;21.47;5.17;;;8.80;99.90;;;;;;5097883;28;20040;-70
2023/05/26 03:51:26;;;;;;;23.17;5.57;;;8.90;99.90;;;;;;5115437;28;20051;-70
2023/05/26 03:53:52;;;;;;;21.17;5.23;;;8.90;99.90;;;;;;5080886;28;20286;-70
2023/05/26 03:56:18;;;;;;;19.83;4.93;;;8.80;99.90;;;;;;5115352;28;20298;-71
2023/05/26 03:58:44;;;;;;;23.67;5.60;;;8.80;99.90;;;;;;5097346;28;20043;-71
2023/05/26 04:01:10;;;;;;;21.17;5.23;;;8.90;99.90;;;;;;5115388;28;20083;-71
2023/05/26 04:03:35;;;;;;;16.93;5.13;;;8.90;99.90;;;;;;5115178;28;20313;-71
2023/05/26 04:06:01;;;;;;;24.10;5.50;;;8.90;99.90;;;;;;5115632;28;20130;-71
2023/05/26 04:08:27;;;;;;;29.10;6.73;;;8.90;99.90;;;;;;5115092;28;20048;-71
2023/05/26 04:10:53;;;;;;;25.20;5.87;;;8.90;99.90;;;;;;5115355;28;20047;-70
2023/05/26 04:13:18;;;;;;;22.70;5.67;;;9.00;99.90;;;;;;5114993;28;20134;-71
2023/05/26 04:15:44;;;;;;;28.80;6.77;;;9.00;99.90;;;;;;5096854;28;20542;-70
2023/05/26 04:18:10;;;;;;;22.43;6.27;;;9.10;99.90;;;;;;5096797;28;20055;-70
2023/05/26 04:20:36;;;;;;;24.23;4.80;;;9.10;99.90;;;;;;5096876;28;20047;-70
2023/05/26 04:23:02;;;;;;;27.70;6.90;;;9.10;99.90;;;;;;5096743;28;20535;-70
2023/05/26 04:25:28;;;;;;;19.03;5.50;;;9.10;99.90;;;;;;5096644;28;20281;-70
2023/05/26 04:27:56;;;;;;;26.17;5.67;;;9.20;99.90;;;;;;5115006;28;20043;-70
2023/05/26 04:30:23;;;;;;;24.47;5.53;;;9.20;99.90;;;;;;5096526;28;20172;-70
2023/05/26 04:32:49;;;;;;;20.87;4.63;;;9.20;99.90;;;;;;5097039;28;20273;-70
2023/05/26 04:35:15;;;;;;;27.20;5.73;;;9.20;99.90;;;;;;5097086;28;20285;-70
2023/05/26 04:37:42;;;;;;;26.83;5.80;;;9.20;99.90;;;;;;5079416;28;20081;-70
2023/05/26 04:40:09;;;;;;;20.57;4.90;;;9.30;99.90;;;;;;5114795;28;20281;-70
2023/05/26 04:42:38;;;;;;;19.83;5.37;;;9.30;99.90;;;;;;5096398;28;20289;-71
2023/05/26 04:45:05;;;;;;;23.23;5.23;;;9.40;99.90;;;;;;5114679;28;20364;-70
2023/05/26 04:47:34;;;;;;;24.77;5.07;;;9.50;99.90;;;;;;5113550;28;20281;-70
2023/05/26 04:50:01;;;;;;;23.00;5.17;;;9.50;99.90;;;;;;5114718;28;20472;-70
2023/05/26 04:52:28;;;;;;;23.37;5.40;;;9.60;99.90;;;;;;5079535;28;20795;-71
2023/05/26 04:54:54;;;;;;;25.03;5.57;;;9.70;99.90;;;;;;5114481;28;20277;-70
2023/05/26 04:57:19;;;;;;;22.97;5.67;;;9.80;99.90;;;;;;5114146;28;20043;-71
2023/05/26 04:59:46;;;;;;;26.77;5.50;;;9.80;99.90;;;;;;5096290;28;20277;-70
2023/05/26 05:02:12;;;;;;;24.83;5.07;;;9.90;99.90;;;;;;5096489;28;20156;-70
2023/05/26 05:04:39;;;;;;;24.23;5.10;;;10.00;99.90;;;;;;5114089;28;20293;-70
2023/05/26 05:07:05;;;;;;;20.63;6.33;;;10.10;99.90;;;;;;5114152;28;20043;-70
2023/05/26 05:09:31;;;;;;;23.57;5.30;;;10.20;99.90;;;;;;5095771;28;20327;-70
2023/05/26 05:11:57;;;;;;;18.03;4.57;;;10.30;99.90;;;;;;5113964;28;20047;-70
2023/05/26 05:14:22;;;;;;;20.17;5.37;;;10.40;99.90;;;;;;5095824;28;20047;-70
2023/05/26 05:16:48;;;;;;;21.63;5.40;;;10.50;99.90;;;;;;5113752;28;20395;-70
2023/05/26 05:19:14;;;;;;;27.50;4.87;;;10.60;99.90;;;;;;5114003;28;20052;-70
2023/05/26 05:21:39;;;;;;;24.80;4.97;;;10.80;99.90;;;;;;5095514;28;20493;-70
2023/05/26 05:24:06;;;;;;;26.40;5.10;;;10.90;99.90;;;;;;5095844;28;20071;-70
2023/05/26 05:26:31;;;;;;;24.13;5.17;;;11.00;99.90;;;;;;5113504;28;20042;-71
2023/05/26 05:28:57;;;;;;;20.97;4.00;;;11.20;99.90;;;;;;5113918;28;20281;-71
2023/05/26 05:31:22;;;;;;;25.23;4.67;;;11.30;99.90;;;;;;5095683;28;20040;-70
2023/05/26 05:33:48;;;;;;;19.63;4.40;;;11.50;99.90;;;;;;5113523;28;20118;-70
2023/05/26 05:36:14;;;;;;;19.93;5.80;;;11.60;99.90;;;;;;5113357;28;20044;-70
2023/05/26 05:38:40;;;;;;;18.20;4.03;;;11.70;99.90;;;;;;5113289;28;20052;-70
2023/05/26 05:41:06;;;;;;;26.73;5.73;;;11.90;99.90;;;;;;5078414;28;20039;-71
2023/05/26 05:43:32;;;;;;;21.00;5.87;;;12.10;99.90;;;;;;5078618;28;20054;-71
2023/05/26 05:45:58;;;;;;;27.23;4.73;;;12.40;99.90;;;;;;5095707;28;20229;-71
2023/05/26 05:48:24;;;;;;;26.10;6.00;;;13.00;99.90;;;;;;5113112;28;20368;-70
2023/05/26 05:50:50;;;;;;;17.73;4.47;;;13.80;99.90;;;;;;5095303;28;20057;-71
2023/05/26 05:53:15;;;;;;;23.13;5.40;;;14.80;99.90;;;;;;5095644;28;20058;-70
2023/05/26 05:55:41;;;;;;;22.20;5.07;;;15.50;99.90;;;;;;5112890;28;20043;-71
2023/05/26 05:58:07;;;;;;;20.83;4.13;;;16.30;99.90;;;;;;5112970;28;20047;-71
2023/05/26 06:00:32;;;;;;;17.97;5.20;;;16.90;99.90;;;;;;5113169;28;20044;-71
2023/05/26 06:02:58;;;;;;;16.37;4.57;;;17.30;99.90;;;;;;5113377;28;20112;-71
2023/05/26 06:05:24;;;;;;;20.37;4.60;;;17.30;99.80;;;;;;5113263;28;20407;-71
2023/05/26 06:07:49;;;;;;;21.87;5.40;;;17.70;99.90;;;;;;5112972;28;20107;-71
2023/05/26 06:10:15;;;;;;;18.47;4.43;;;18.00;98.60;;;;;;5078241;28;20483;-71
2023/05/26 06:12:41;;;;;;;18.47;4.93;;;18.00;96.70;;;;;;5113030;28;20043;-71
2023/05/26 06:15:07;;;;;;;15.10;4.80;;;18.50;98.90;;;;;;5113067;28;20048;-71
2023/05/26 06:17:33;;;;;;;18.13;5.23;;;18.80;92.40;;;;;;5094643;28;20380;-71
2023/05/26 06:19:59;;;;;;;24.93;5.47;;;18.90;91.30;;;;;;5095300;28;20047;-71
2023/05/26 06:22:24;;;;;;;21.80;4.67;;;19.30;83.90;;;;;;5095251;28;20048;-71
2023/05/26 06:24:50;;;;;;;20.27;4.53;;;19.10;86.20;;;;;;5112725;28;20387;-71
2023/05/26 06:27:16;;;;;;;15.87;4.27;;;19.00;81.80;;;;;;5113214;28;20043;-71
2023/05/26 06:29:42;;;;;;;15.73;4.87;;;18.70;66.10;;;;;;5094890;28;20501;-71
2023/05/26 06:32:07;;;;;;;22.97;4.60;;;18.50;78.40;;;;;;5112973;28;20047;-71
2023/05/26 06:34:33;;;;;;;18.93;4.70;;;18.50;76.60;;;;;;5112767;28;20048;-72
2023/05/26 06:36:59;;;;;;;21.23;5.40;;;18.70;70.00;;;;;;5094722;28;20050;-71
2023/05/26 06:39:25;;;;;;;18.10;4.53;;;19.20;78.10;;;;;;5094780;28;20054;-71
2023/05/26 06:41:51;;;;;;;18.53;4.13;;;19.40;67.20;;;;;;5112520;28;20113;-71
2023/05/26 06:44:17;;;;;;;14.30;4.07;;;19.10;65.30;;;;;;5112975;28;20083;-71
2023/05/26 06:46:44;;;;;;;13.13;4.40;;;19.40;65.70;;;;;;5094786;28;20056;-71
2023/05/26 06:49:10;;;;;;;17.97;4.57;;;19.40;60.30;;;;;;5094871;28;20094;-71
2023/05/26 06:51:35;;;;;;;18.43;4.80;;;19.40;58.40;;;;;;5112716;28;20467;-72
2023/05/26 06:54:01;;;;;;;17.27;4.10;;;19.70;60.10;;;;;;5094632;28;20050;-71
2023/05/26 06:56:27;;;;;;;16.40;4.20;;;19.90;58.90;;;;;;5112650;28;20073;-71
2023/05/26 06:58:53;;;;;;;13.37;3.33;;;20.20;58.00;;;;;;5077558;28;20043;-71
2023/05/26 07:01:19;;;;;;;15.27;4.10;;;20.50;56.20;;;;;;5112736;28;20046;-71
2023/05/26 07:03:44;;;;;;;15.33;4.37;;;20.40;53.50;;;;;;5112645;28;20104;-71
2023/05/26 07:06:11;;;;;;;16.33;5.00;;;20.50;54.60;;;;;;5094041;28;20036;-70
2023/05/26 07:08:36;;;;;;;16.33;3.83;;;20.80;54.80;;;;;;5093983;28;20490;-75
2023/05/26 07:11:02;;;;;;;17.03;4.27;;;20.90;53.50;;;;;;5115708;28;20126;-71
2023/05/26 07:13:28;;;;;;;19.10;4.87;;;21.10;52.90;;;;;;5116280;28;20039;-71
2023/05/26 07:15:54;;;;;;;14.13;3.80;;;20.70;50.80;;;;;;5098129;28;20384;-69
2023/05/26 07:18:20;;;;;;;14.83;4.93;;;20.90;51.70;;;;;;5098014;28;20052;-72
2023/05/26 07:20:47;;;;;;;18.33;4.87;;;21.20;51.10;;;;;;5116064;28;20052;-73
2023/05/26 07:23:13;;;;;;;18.17;5.10;;;21.30;50.90;;;;;;5116204;28;20148;-73
2023/05/26 07:25:39;;;;;;;18.07;4.33;;;21.10;48.80;;;;;;5115867;28;20556;-76
2023/05/26 07:28:04;;;;;;;14.37;4.53;;;21.20;50.00;;;;;;5116312;28;20403;-72
2023/05/26 07:30:30;;;;;;;16.17;4.43;;;21.00;48.80;;;;;;5081185;28;20071;-73
2023/05/26 07:32:56;;;;;;;19.10;3.83;;;21.40;48.10;;;;;;5097656;28;20043;-73
2023/05/26 07:35:21;;;;;;;15.53;4.20;;;21.20;47.50;;;;;;5116097;28;20047;-72
2023/05/26 07:37:47;;;;;;;16.50;4.77;;;21.10;47.90;;;;;;5115758;28;20059;-73
2023/05/26 07:40:13;;;;;;;14.73;4.50;;;21.10;47.50;;;;;;5097737;28;20048;-73
2023/05/26 07:42:39;;;;;;;13.80;4.20;;;21.20;47.80;;;;;;5116121;28;20465;-72
2023/05/26 07:45:05;;;;;;;15.13;4.37;;;21.60;47.00;;;;;;5097678;28;20054;-72
2023/05/26 07:47:31;;;;;;;16.00;4.20;;;21.50;45.90;;;;;;5115761;28;20507;-72
2023/05/26 07:50:00;;;;;;;12.63;3.70;;;21.30;47.00;;;;;;5080641;28;20087;-73
2023/05/26 07:52:26;;;;;;;11.57;3.73;;;21.30;45.70;;;;;;5097330;28;20053;-73
2023/05/26 07:54:52;;;;;;;15.07;4.43;;;21.20;46.30;;;;;;5115512;28;20043;-72
2023/05/26 07:57:18;;;;;;;13.07;3.80;;;20.90;46.80;;;;;;5097477;28;20555;-72
2023/05/26 07:59:43;;;;;;;15.20;4.07;;;21.20;45.90;;;;;;5080290;28;20147;-72
2023/05/26 08:02:12;;;;;;;10.83;3.10;;;21.60;46.40;;;;;;5097651;28;20085;-70
2023/05/26 08:04:38;;;;;;;12.73;4.03;;;21.70;46.00;;;;;;5115559;28;20044;-71
2023/05/26 08:07:04;;;;;;;14.03;3.43;;;22.20;46.20;;;;;;5115065;28;20210;-73
2023/05/26 08:09:29;;;;;;;21.17;4.20;;;22.30;46.20;;;;;;5115494;28;20054;-73
2023/05/26 08:11:55;;;;;;;13.17;3.70;;;22.60;45.90;;;;;;5097236;28;20044;-73
2023/05/26 08:14:23;;;;;;;10.40;3.10;;;22.10;44.80;;;;;;5115384;28;20130;-72
2023/05/26 08:16:49;;;;;;;17.40;4.53;;;22.10;44.90;;;;;;5096547;28;20108;-74
2023/05/26 08:19:15;;;;;;;13.07;4.03;;;22.20;45.80;;;;;;5096877;28;20464;-72
2023/05/26 08:21:40;;;;;;;11.87;4.37;;;22.30;45.40;;;;;;5080009;28;20135;-72
2023/05/26 08:24:06;;;;;;;13.07;3.80;;;22.30;45.70;;;;;;5114985;28;20047;-73
2023/05/26 08:26:32;;;;;;;14.63;3.87;;;22.50;44.60;;;;;;5097204;28;20498;-73
2023/05/26 08:28:58;;;;;;;11.07;4.13;;;22.70;44.80;;;;;;5114858;28;20236;-72
2023/05/26 08:31:25;;;;;;;12.87;3.67;;;22.50;44.20;;;;;;5115103;28;20469;-73
2023/05/26 08:33:50;;;;;;;16.27;4.17;;;22.20;44.50;;;;;;5114777;28;20047;-73
2023/05/26 08:36:16;;;;;;;12.53;3.33;;;21.50;45.70;;;;;;5114722;28;20406;-73
2023/05/26 08:38:42;;;;;;;14.57;3.50;;;21.20;46.30;;;;;;5096917;28;20471;-73
2023/05/26 08:41:09;;;;;;;11.40;3.50;;;20.60;47.00;;;;;;5096915;28;20104;-72
2023/05/26 08:43:46;;;;;;;17.40;4.23;;;20.10;46.80;;;;;;5114805;28;20138;-72
2023/05/26 08:46:12;;;;;;;14.20;4.40;;;19.30;47.40;;;;;;5096634;28;20498;-70
2023/05/26 08:48:42;;;;;;;15.33;4.43;;;18.70;48.50;;;;;;5114538;28;20044;-71
2023/05/26 08:51:09;;;;;;;16.30;4.43;;;18.50;49.30;;;;;;5114265;28;20048;-71
2023/05/26 08:53:36;;;;;;;14.47;4.03;;;18.40;49.50;;;;;;5096205;28;20479;-72
2023/05/26 08:56:03;;;;;;;14.17;4.00;;;18.20;50.10;;;;;;5113759;28;20092;-69
2023/05/26 08:58:30;;;;;;;19.67;4.37;;;18.10;50.40;;;;;;5095904;28;20035;-70
2023/05/26 09:00:57;;;;;;;14.10;3.63;;;17.90;50.70;;;;;;5095303;28;20044;-70
2023/05/26 09:03:23;;;;;;;16.20;4.23;;;17.80;51.60;;;;;;5113754;28;20048;-70
2023/05/26 09:05:49;;;;;;;14.80;3.90;;;17.60;51.80;;;;;;5079106;28;20492;-70
2023/05/26 09:08:15;;;;;;;14.20;3.87;;;17.40;52.00;;;;;;5095378;28;20122;-68
2023/05/26 09:10:41;;;;;;;14.50;3.80;;;17.20;52.70;;;;;;5095404;28;20044;-70
2023/05/26 09:13:09;;;;;;;13.83;3.50;;;17.10;53.40;;;;;;5113312;28;20066;-69
2023/05/26 09:15:36;;;;;;;13.03;3.83;;;17.00;53.80;;;;;;5114029;28;20066;-69
2023/05/26 09:18:05;;;;;;;14.70;4.40;;;17.00;54.00;;;;;;5113517;28;20069;-68
2023/05/26 09:20:34;;;;;;;18.57;4.40;;;16.90;55.30;;;;;;5114019;28;20043;-68
2023/05/26 09:23:00;;;;;;;12.47;3.47;;;16.90;56.90;;;;;;5078775;28;20054;-69
2023/05/26 09:25:31;;;;;;;18.53;5.60;;;16.90;58.30;;;;;;5114001;28;20047;-69
2023/05/26 09:28:05;;;;;;;13.93;3.67;;;16.90;58.40;;;;;;5095672;28;20487;-72
2023/05/26 09:30:41;;;;;;;15.00;3.40;;;16.80;58.70;;;;;;5113793;28;20071;-74
2023/05/26 09:33:10;;;;;;;16.67;4.27;;;16.80;58.80;;;;;;5113278;28;20051;-70
2023/05/26 09:35:43;;;;;;;18.57;3.93;;;16.70;60.00;;;;;;5113833;28;20482;-71
2023/05/26 09:38:11;;;;;;;12.90;3.27;;;16.80;61.00;;;;;;5078253;28;20126;-72
2023/05/26 09:40:44;;;;;;;12.23;3.53;;;16.60;61.70;;;;;;5095521;28;20044;-69
2023/05/26 09:43:11;;;;;;;12.67;3.43;;;16.60;62.70;;;;;;5113078;28;20047;-71
2023/05/26 09:45:38;;;;;;;13.83;4.67;;;16.30;61.00;;;;;;5094016;28;20047;-71
2023/05/26 09:48:05;;;;;;;14.07;4.03;;;16.40;62.80;;;;;;5095406;28;20063;-71
2023/05/26 09:50:36;;;;;;;17.00;3.80;;;16.50;64.50;;;;;;5095253;28;20083;-71
2023/05/26 09:53:04;;;;;;;13.53;3.77;;;16.60;62.50;;;;;;5113170;28;20122;-72
2023/05/26 09:55:31;;;;;;;15.20;3.60;;;16.60;64.30;;;;;;5095280;28;20384;-71
2023/05/26 09:58:07;;;;;;;9.83;3.70;;;16.50;63.60;;;;;;5113371;28;20089;-71
2023/05/26 10:00:34;;;;;;;15.17;4.97;;;16.40;63.50;;;;;;5113490;28;20514;-71
2023/05/26 10:03:04;;;;;;;16.13;4.40;;;16.30;65.90;;;;;;5095109;28;20044;-71
2023/05/26 10:05:38;;;;;;;15.63;3.30;;;16.30;66.40;;;;;;5113412;28;20396;-71
2023/05/26 10:08:05;;;;;;;13.20;3.73;;;16.40;70.40;;;;;;5095161;28;20051;-72
2023/05/26 10:10:33;;;;;;;16.57;4.10;;;16.50;67.20;;;;;;5113372;28;20044;-72
2023/05/26 10:12:59;;;;;;;10.27;3.27;;;16.40;67.20;;;;;;5113186;28;20399;-75
2023/05/26 10:15:25;;;;;;;14.07;3.73;;;16.40;71.10;;;;;;5113064;28;20431;-75
2023/05/26 10:17:51;;;;;;;14.80;3.67;;;16.40;69.80;;;;;;5112917;28;20052;-77
2023/05/26 10:20:18;;;;;;;13.37;3.40;;;16.40;69.10;;;;;;5094705;28;20491;-72
2023/05/26 10:23:01;;;;;;;13.93;3.60;;;16.40;70.60;;;;;;5113049;28;20051;-73
2023/05/26 10:25:46;;;;;;;16.63;4.87;;;16.40;72.90;;;;;;5113026;28;20558;-73
2023/05/26 10:28:27;;;;;;;11.15;3.53;;;16.60;72.70;;;;;;5112891;28;20050;-73
2023/05/26 10:31:00;;;;;;;13.20;3.67;;;16.70;67.30;;;;;;5112922;28;20105;-72
2023/05/26 10:33:43;;;;;;;12.37;3.30;;;16.70;68.10;;;;;;5077901;28;20043;-73
2023/05/26 10:36:17;;;;;;;14.00;4.30;;;16.60;65.80;;;;;;5112850;28;20039;-74
2023/05/26 10:38:45;;;;;;;12.23;3.97;;;16.60;68.10;;;;;;5112938;28;20514;-76
2023/05/26 10:41:12;;;;;;;11.27;3.03;;;16.50;68.40;;;;;;5112712;28;20503;-74
2023/05/26 10:43:38;;;;;;;13.17;3.90;;;16.50;70.20;;;;;;5094908;28;20083;-70
2023/05/26 10:46:05;;;;;;;11.90;3.80;;;16.40;68.70;;;;;;5116194;28;20502;-73
2023/05/26 10:48:36;;;;;;;14.20;3.50;;;16.30;70.80;;;;;;5116995;28;20055;-72
2023/05/26 10:51:23;;;;;;;13.87;3.50;;;16.30;72.50;;;;;;5098895;28;20043;-71
2023/05/26 10:53:51;;;;;;;19.30;3.87;;;16.40;68.40;;;;;;5116964;28;20047;-71
2023/05/26 10:56:18;;;;;;;13.60;3.37;;;16.30;70.00;;;;;;5098355;28;20058;-71
2023/05/26 10:58:56;;;;;;;18.50;3.97;;;16.20;73.50;;;;;;5116965;28;20118;-71
2023/05/26 11:01:26;;;;;;;14.90;4.40;;;16.20;75.10;;;;;;5098691;28;20074;-72
2023/05/26 11:04:12;;;;;;;13.67;3.53;;;16.20;74.80;;;;;;5098811;28;20138;-71
2023/05/26 11:06:51;;;;;;;23.43;4.20;;;16.20;77.50;;;;;;5116580;28;20123;-71
2023/05/26 11:09:25;;;;;;;19.20;4.60;;;16.30;74.60;;;;;;5116435;28;20049;-72
2023/05/26 11:11:59;;;;;;;16.35;4.00;;;16.30;77.90;;;;;;5116635;28;20044;-72
2023/05/26 11:14:29;;;;;;;13.83;3.30;;;16.20;76.90;;;;;;5116214;28;20089;-71
2023/05/26 11:16:57;;;;;;;13.80;3.63;;;16.20;76.00;;;;;;5097974;28;20054;-72
2023/05/26 11:19:30;;;;;;;13.90;3.20;;;16.20;75.50;;;;;;5116231;28;20134;-72
2023/05/26 11:21:57;;;;;;;15.83;3.97;;;16.20;78.00;;;;;;5116322;28;20051;-72
2023/05/26 11:24:24;;;;;;;20.63;4.50;;;16.10;79.60;;;;;;5098157;28;20100;-71
2023/05/26 11:26:49;;;;;;;12.40;4.03;;;16.20;82.00;;;;;;5116511;28;20445;-71
2023/05/26 11:29:15;;;;;;;16.03;4.30;;;16.20;80.40;;;;;;5115866;28;20048;-72
2023/05/26 11:31:46;;;;;;;13.13;4.07;;;16.20;81.10;;;;;;5115926;28;20043;-71
2023/05/26 11:34:12;;;;;;;16.10;4.30;;;16.10;82.80;;;;;;5115782;28;20503;-72
2023/05/26 11:36:37;;;;;;;15.43;3.67;;;16.20;83.90;;;;;;5098059;28;20042;-72
2023/05/26 11:39:04;;;;;;;13.83;3.73;;;16.20;81.30;;;;;;5116021;28;20461;-72
2023/05/26 11:41:30;;;;;;;16.47;4.33;;;16.20;81.60;;;;;;5115666;28;20209;-72
2023/05/26 11:43:56;;;;;;;17.20;3.87;;;16.20;84.50;;;;;;5115875;28;20126;-71
2023/05/26 11:46:25;;;;;;;17.33;3.87;;;16.20;84.90;;;;;;5115442;28;20452;-72
2023/05/26 11:48:51;;;;;;;16.70;4.80;;;16.30;85.90;;;;;;5115722;28;20047;-70
2023/05/26 11:51:21;;;;;;;15.13;4.27;;;16.20;85.90;;;;;;5115663;28;20046;-71
2023/05/26 11:53:52;;;;;;;18.20;4.50;;;16.20;84.80;;;;;;5116071;28;20044;-69
2023/05/26 11:56:19;;;;;;;20.43;4.33;;;16.20;87.10;;;;;;5115003;28;20122;-70
2023/05/26 11:58:53;;;;;;;17.57;4.30;;;16.10;86.70;;;;;;5115563;28;20069;-69
2023/05/26 12:01:21;;;;;;;15.47;4.00;;;16.20;88.80;;;;;;5115673;28;20274;-70
2023/05/26 12:03:49;;;;;;;20.53;5.33;;;16.30;89.00;;;;;;5115687;28;20396;-70
2023/05/26 12:06:26;;;;;;;16.90;5.20;;;16.30;87.40;;;;;;5115253;28;20636;-72
2023/05/26 12:08:58;;;;;;;18.10;3.90;;;16.30;87.20;;;;;;5115392;28;20406;-70
2023/05/26 12:11:33;;;;;;;17.03;4.97;;;16.30;84.80;;;;;;5097102;28;20376;-71
2023/05/26 12:14:26;;;;;;;15.93;4.40;;;16.10;86.80;;;;;;5115506;28;20094;-70
2023/05/26 12:16:55;;;;;;;17.63;4.73;;;16.20;90.70;;;;;;5110677;28;20051;-71
2023/05/26 12:19:21;;;;;;;15.03;4.17;;;16.30;91.50;;;;;;5114948;28;20079;-71
2023/05/26 12:21:51;;;;;;;16.23;3.70;;;16.20;90.70;;;;;;5115306;28;20062;-70
2023/05/26 12:24:37;;;;;;;16.93;4.70;;;16.30;90.10;;;;;;5114965;28;20043;-71
2023/05/26 12:27:07;;;;;;;14.50;3.63;;;16.20;90.00;;;;;;5097321;28;20047;-71
2023/05/26 12:29:43;;;;;;;13.47;4.23;;;16.20;90.00;;;;;;5114668;28;20479;-71
2023/05/26 12:32:13;;;;;;;14.17;3.90;;;16.30;89.40;;;;;;5114792;28;20043;-70
2023/05/26 12:34:39;;;;;;;15.50;4.23;;;16.40;90.50;;;;;;5114751;28;20047;-70
2023/05/26 12:37:05;;;;;;;14.67;4.23;;;16.30;90.00;;;;;;5114896;28;20050;-70
2023/05/26 12:39:31;;;;;;;19.37;4.33;;;16.30;88.30;;;;;;5130743;27;20765;-71
2023/05/26 12:41:57;;;;;;;17.80;3.73;;;16.10;87.80;;;;;;5114895;28;20048;-70
2023/05/26 12:44:23;;;;;;;16.07;3.73;;;16.10;88.00;;;;;;5096551;28;20491;-71